Martinsburg, Iowa
Current Conditions -  °F | °C
As of 2:53 AM on Friday 24 Oct 2014 (Local Time) from KOTM Reporting Station
Moderate Fog Moderate Fog  
Wind Chill: 49°   Ceiling: 200
Heat Index: 49°   Visibility: 0.25mi
Dew Point: 48°   Wind: 3mph
Humidity: 97%   Direction: 200°SSW
Pressure: 30.05"   Gusts: NA
Location:  41.18°N, 92.25°W
Report Text: KOTM 240753Z AUTO 20003KT 1/4SM FG VV002 09/09 A3005 RMK AO2 SLP174 T00940089
Loading
Personal Weather Stations






























Interactive Weather Map
Tropical Storm Tracking
New forecast layout! Learn more

10-Day Weather Forecast

Advertisements
Track Severe Weather on mobile